createdAt,value
2018-12-18T00:00:07.862Z,20.75
2018-12-18T00:00:40.761Z,20.75
2018-12-18T00:01:13.709Z,20.75
2018-12-18T00:01:46.657Z,20.75
2018-12-18T00:02:19.549Z,20.75
2018-12-18T00:02:52.689Z,20.76
2018-12-18T00:03:25.668Z,20.76
2018-12-18T00:03:58.487Z,20.76
2018-12-18T00:04:31.616Z,20.75
2018-12-18T00:05:04.599Z,20.75
2018-12-18T00:05:37.430Z,20.76
2018-12-18T00:06:10.401Z,20.75
2018-12-18T00:06:43.401Z,20.75
2018-12-18T00:07:16.247Z,20.74
2018-12-18T00:07:49.241Z,20.75
2018-12-18T00:08:22.139Z,20.75
2018-12-18T00:08:55.070Z,20.74
2018-12-18T00:09:28.068Z,20.74
2018-12-18T00:10:00.990Z,20.74
2018-12-18T00:10:34.263Z,20.75
2018-12-18T00:11:07.604Z,20.77
2018-12-18T00:11:40.732Z,20.76
2018-12-18T00:12:13.794Z,20.76
2018-12-18T00:12:46.790Z,20.75
2018-12-18T00:13:19.903Z,20.76
2018-12-18T00:13:52.740Z,20.76
2018-12-18T00:14:25.750Z,20.76
2018-12-18T00:14:58.681Z,20.75
2018-12-18T00:15:31.473Z,20.77
2018-12-18T00:16:04.400Z,20.77
2018-12-18T00:16:37.302Z,20.76
2018-12-18T00:17:10.233Z,20.76
2018-12-18T00:17:42.914Z,20.76
2018-12-18T00:18:16.039Z,20.76
2018-12-18T00:18:48.995Z,20.76
2018-12-18T00:19:21.810Z,20.75
2018-12-18T00:19:54.760Z,20.75
2018-12-18T00:20:27.802Z,20.76
2018-12-18T00:21:00.829Z,20.77
2018-12-18T00:21:33.765Z,20.76
2018-12-18T00:22:06.623Z,20.76
2018-12-18T00:22:39.707Z,20.76
2018-12-18T00:23:12.844Z,20.75
2018-12-18T00:23:45.832Z,20.74
2018-12-18T00:24:18.803Z,20.76
2018-12-18T00:24:51.983Z,20.76
2018-12-18T00:25:25.076Z,20.76
2018-12-18T00:25:58.142Z,20.76
2018-12-18T00:26:31.317Z,20.76
2018-12-18T00:27:04.308Z,20.74
2018-12-18T00:27:37.639Z,20.75
2018-12-18T00:28:10.762Z,20.75
2018-12-18T00:28:43.864Z,20.75
2018-12-18T00:29:17.012Z,20.75
2018-12-18T00:29:49.768Z,20.75
2018-12-18T00:30:22.614Z,20.75
2018-12-18T00:30:55.753Z,20.75
2018-12-18T00:31:28.824Z,20.76
2018-12-18T00:32:01.997Z,20.76
2018-12-18T00:32:35.106Z,20.76
2018-12-18T00:33:08.266Z,20.77
2018-12-18T00:33:46.049Z,20.76
2018-12-18T00:34:16.179Z,20.77
2018-12-18T00:34:49.308Z,20.76
2018-12-18T00:35:22.153Z,20.77
2018-12-18T00:35:55.420Z,20.78
2018-12-18T00:36:28.635Z,20.77
2018-12-18T00:37:01.852Z,20.77
2018-12-18T00:37:35.028Z,20.78
2018-12-18T00:38:08.142Z,20.77
2018-12-18T00:38:41.094Z,20.78
2018-12-18T00:39:14.022Z,20.78
2018-12-18T00:39:47.085Z,20.78
2018-12-18T00:40:20.335Z,20.78
2018-12-18T00:40:53.416Z,20.77
2018-12-18T00:41:27.455Z,20.78
2018-12-18T00:42:00.738Z,20.78
2018-12-18T00:42:33.530Z,20.76
2018-12-18T00:43:06.616Z,20.76
2018-12-18T00:43:39.490Z,20.78
2018-12-18T00:44:12.642Z,20.78
2018-12-18T00:44:45.453Z,20.77
2018-12-18T00:45:18.617Z,20.78
2018-12-18T00:45:51.822Z,20.79
2018-12-18T00:46:25.002Z,20.78
2018-12-18T00:46:58.173Z,20.77
2018-12-18T00:47:31.278Z,20.79
2018-12-18T00:48:04.254Z,20.78
2018-12-18T00:48:37.457Z,20.78
2018-12-18T00:49:10.324Z,20.77
2018-12-18T00:49:43.459Z,20.77
2018-12-18T00:50:17.122Z,20.78
2018-12-18T00:50:49.966Z,20.78
2018-12-18T00:51:23.206Z,20.78
2018-12-18T00:51:56.347Z,20.78
2018-12-18T00:52:29.240Z,20.78
2018-12-18T00:53:02.677Z,20.78
2018-12-18T00:53:35.531Z,20.77
2018-12-18T00:54:08.730Z,20.78
2018-12-18T00:54:41.782Z,20.79
2018-12-18T00:55:15.144Z,20.78
2018-12-18T00:55:47.936Z,20.79
2018-12-18T00:56:21.029Z,20.79
2018-12-18T00:56:54.013Z,20.79
2018-12-18T00:57:26.950Z,20.80
2018-12-18T00:57:59.884Z,20.81
2018-12-18T00:58:33.515Z,20.82
2018-12-18T00:59:06.448Z,20.80
2018-12-18T00:59:39.519Z,20.79
2018-12-18T01:00:12.455Z,20.79
2018-12-18T01:00:45.591Z,20.80
2018-12-18T01:01:18.375Z,20.79
2018-12-18T01:01:51.354Z,20.79
2018-12-18T01:02:24.209Z,20.79
2018-12-18T01:02:57.981Z,20.80
2018-12-18T01:03:31.182Z,20.80
2018-12-18T01:04:04.182Z,20.79
2018-12-18T01:04:37.987Z,20.79
2018-12-18T01:05:10.800Z,20.79
2018-12-18T01:05:44.131Z,20.80
2018-12-18T01:06:17.272Z,20.81
2018-12-18T01:06:50.021Z,20.80
2018-12-18T01:07:23.082Z,20.81
2018-12-18T01:07:56.339Z,20.80
2018-12-18T01:08:29.327Z,20.80
2018-12-18T01:09:02.487Z,20.80
2018-12-18T01:09:35.474Z,20.81
2018-12-18T01:10:08.695Z,20.80
2018-12-18T01:10:41.818Z,20.80
2018-12-18T01:11:14.817Z,20.81
2018-12-18T01:11:47.906Z,20.81
2018-12-18T01:12:20.841Z,20.81
2018-12-18T01:12:53.798Z,20.80
2018-12-18T01:13:26.851Z,20.80
2018-12-18T01:13:59.899Z,20.79
2018-12-18T01:14:33.460Z,20.80
2018-12-18T01:15:06.521Z,20.80
2018-12-18T01:15:39.508Z,20.80
2018-12-18T01:16:12.369Z,20.80
2018-12-18T01:16:45.340Z,20.80
2018-12-18T01:17:18.211Z,20.82
2018-12-18T01:17:50.982Z,20.82
2018-12-18T01:18:24.152Z,20.83
2018-12-18T01:18:57.034Z,20.83
2018-12-18T01:19:30.166Z,20.83
2018-12-18T01:20:03.213Z,20.83
2018-12-18T01:20:35.729Z,20.82
2018-12-18T01:21:08.473Z,20.82
2018-12-18T01:21:41.494Z,20.81
2018-12-18T01:22:14.615Z,20.81
2018-12-18T01:22:47.467Z,20.82
2018-12-18T01:23:20.592Z,20.82
2018-12-18T01:23:53.876Z,20.81
2018-12-18T01:24:26.963Z,20.81
2018-12-18T01:24:59.946Z,20.81
2018-12-18T01:25:32.939Z,20.81
2018-12-18T01:26:06.021Z,20.83
2018-12-18T01:26:38.938Z,20.83
2018-12-18T01:27:12.034Z,20.82
2018-12-18T01:27:44.952Z,20.83
2018-12-18T01:28:18.422Z,20.82
2018-12-18T01:28:51.496Z,20.82
2018-12-18T01:29:24.439Z,20.82
2018-12-18T01:29:57.561Z,20.82
2018-12-18T01:30:30.661Z,20.82
2018-12-18T01:31:03.455Z,20.83
2018-12-18T01:31:36.552Z,20.82
2018-12-18T01:32:09.560Z,20.84
2018-12-18T01:32:42.842Z,20.83
2018-12-18T01:33:15.833Z,20.82
2018-12-18T01:33:48.990Z,20.83
2018-12-18T01:34:21.979Z,20.82
2018-12-18T01:34:54.975Z,20.83
2018-12-18T01:35:28.015Z,20.84
2018-12-18T01:36:01.113Z,20.84
2018-12-18T01:36:34.062Z,20.84
2018-12-18T01:37:07.036Z,20.84
2018-12-18T01:37:40.242Z,20.83
2018-12-18T01:38:13.067Z,20.83
2018-12-18T01:38:45.976Z,20.82
2018-12-18T01:39:18.917Z,20.84
2018-12-18T01:39:51.982Z,20.83
2018-12-18T01:40:25.129Z,20.83
2018-12-18T01:40:58.010Z,20.82
2018-12-18T01:41:30.944Z,20.84
2018-12-18T01:42:04.122Z,20.84
2018-12-18T01:42:37.103Z,20.84
2018-12-18T01:43:10.246Z,20.83
2018-12-18T01:43:43.479Z,20.83
2018-12-18T01:44:16.514Z,20.82
2018-12-18T01:44:49.483Z,20.84
2018-12-18T01:45:22.318Z,20.85
2018-12-18T01:45:55.262Z,20.84
2018-12-18T01:46:28.757Z,20.84
2018-12-18T01:47:01.642Z,20.85
2018-12-18T01:47:34.393Z,20.84
2018-12-18T01:48:07.294Z,20.84
2018-12-18T01:48:40.586Z,20.85
2018-12-18T01:49:13.727Z,20.84
2018-12-18T01:49:46.657Z,20.84
2018-12-18T01:50:19.644Z,20.85
2018-12-18T01:50:52.801Z,20.83
2018-12-18T01:51:26.248Z,20.84
2018-12-18T01:51:58.499Z,20.85
2018-12-18T01:52:30.672Z,20.85
2018-12-18T01:53:02.939Z,20.84
2018-12-18T01:53:35.107Z,20.83
2018-12-18T01:54:07.928Z,20.83
2018-12-18T01:54:40.772Z,20.83
2018-12-18T01:55:13.852Z,20.83
2018-12-18T01:55:46.775Z,20.82
2018-12-18T01:56:19.710Z,20.83
2018-12-18T01:56:52.725Z,20.83
2018-12-18T01:57:25.696Z,20.84
2018-12-18T01:57:58.677Z,20.84
2018-12-18T01:58:31.720Z,20.83
2018-12-18T01:59:04.755Z,20.84
2018-12-18T01:59:37.905Z,20.84
2018-12-18T02:00:10.897Z,20.84
2018-12-18T02:00:44.038Z,20.83
2018-12-18T02:01:17.057Z,20.83
2018-12-18T02:01:50.005Z,20.83
2018-12-18T02:02:22.615Z,20.83
2018-12-18T02:02:56.175Z,20.84
2018-12-18T02:03:29.368Z,20.84
2018-12-18T02:04:05.914Z,20.83
2018-12-18T02:04:38.056Z,20.83
2018-12-18T02:05:11.088Z,20.83
2018-12-18T02:05:44.030Z,20.83
2018-12-18T02:06:17.328Z,20.83
2018-12-18T02:06:50.078Z,20.84
2018-12-18T02:07:23.317Z,20.84
2018-12-18T02:07:56.186Z,20.84
2018-12-18T02:08:29.371Z,20.84
2018-12-18T02:09:02.278Z,20.83
2018-12-18T02:09:35.325Z,20.84
2018-12-18T02:10:08.358Z,20.84
2018-12-18T02:10:41.269Z,20.83
2018-12-18T02:11:14.312Z,20.84
2018-12-18T02:11:47.301Z,20.84
2018-12-18T02:12:20.318Z,20.83
2018-12-18T02:12:53.559Z,20.82
2018-12-18T02:13:26.535Z,20.83
2018-12-18T02:13:59.639Z,20.84
2018-12-18T02:14:32.887Z,20.84
2018-12-18T02:15:05.827Z,20.84
2018-12-18T02:15:38.921Z,20.84
2018-12-18T02:16:11.808Z,20.84
2018-12-18T02:16:44.663Z,20.84
2018-12-18T02:17:17.971Z,20.84
2018-12-18T02:17:50.758Z,20.84
2018-12-18T02:18:23.579Z,20.84
2018-12-18T02:18:56.393Z,20.84
2018-12-18T02:19:29.441Z,20.85
2018-12-18T02:20:02.610Z,20.85
2018-12-18T02:20:35.534Z,20.85
2018-12-18T02:21:08.428Z,20.84
2018-12-18T02:21:41.250Z,20.84
2018-12-18T02:22:14.074Z,20.85
2018-12-18T02:22:47.381Z,20.84
2018-12-18T02:23:20.600Z,20.84
2018-12-18T02:23:53.832Z,20.84
2018-12-18T02:24:26.715Z,20.84
2018-12-18T02:24:59.581Z,20.84
2018-12-18T02:25:32.621Z,20.84
2018-12-18T02:26:05.487Z,20.85
2018-12-18T02:26:38.416Z,20.83
2018-12-18T02:27:11.401Z,20.84
2018-12-18T02:27:44.229Z,20.84
2018-12-18T02:28:17.530Z,20.85
2018-12-18T02:28:50.527Z,20.85
2018-12-18T02:29:23.610Z,20.85
2018-12-18T02:29:56.672Z,20.85
2018-12-18T02:30:29.690Z,20.85
2018-12-18T02:31:03.022Z,20.84
2018-12-18T02:31:36.151Z,20.85
2018-12-18T02:32:09.188Z,20.84
2018-12-18T02:32:42.351Z,20.85
2018-12-18T02:33:15.258Z,20.85
2018-12-18T02:33:48.083Z,20.83
2018-12-18T02:34:21.235Z,20.85
2018-12-18T02:34:54.112Z,20.84
2018-12-18T02:35:27.380Z,20.84
2018-12-18T02:36:00.375Z,20.85
2018-12-18T02:36:33.413Z,20.85
2018-12-18T02:37:06.525Z,20.84
2018-12-18T02:37:39.582Z,20.83
2018-12-18T02:38:13.557Z,20.84
2018-12-18T02:38:46.553Z,20.83
2018-12-18T02:39:19.623Z,20.83
2018-12-18T02:39:52.643Z,20.84
2018-12-18T02:40:25.591Z,20.84
2018-12-18T02:40:58.618Z,20.84
2018-12-18T02:41:31.711Z,20.84
2018-12-18T02:42:04.700Z,20.85
2018-12-18T02:42:37.560Z,20.84
2018-12-18T02:43:10.617Z,20.84
2018-12-18T02:43:43.583Z,20.84
2018-12-18T02:44:17.030Z,20.84
2018-12-18T02:44:49.967Z,20.84
2018-12-18T02:45:23.178Z,20.84
2018-12-18T02:45:56.317Z,20.84
2018-12-18T02:46:29.567Z,20.84
2018-12-18T02:47:03.020Z,20.83
2018-12-18T02:47:36.050Z,20.84
2018-12-18T02:48:09.062Z,20.84
2018-12-18T02:48:41.933Z,20.85
2018-12-18T02:49:15.074Z,20.83
2018-12-18T02:49:48.092Z,20.83
2018-12-18T02:50:21.375Z,20.83
2018-12-18T02:50:54.467Z,20.83
2018-12-18T02:51:27.492Z,20.83
2018-12-18T02:52:00.149Z,20.83
2018-12-18T02:52:32.998Z,20.83
2018-12-18T02:53:05.929Z,20.84
2018-12-18T02:53:39.236Z,20.85
2018-12-18T02:54:12.627Z,20.85
2018-12-18T02:54:45.471Z,20.85
2018-12-18T02:55:18.650Z,20.85
2018-12-18T02:55:51.594Z,20.84
2018-12-18T02:56:24.975Z,20.84
2018-12-18T02:56:57.998Z,20.85
2018-12-18T02:57:30.827Z,20.84
2018-12-18T02:58:03.871Z,20.84
2018-12-18T02:58:36.895Z,20.83
2018-12-18T02:59:52.522Z,20.84
2018-12-18T03:00:25.502Z,20.85
2018-12-18T03:00:58.555Z,20.84
2018-12-18T03:01:31.784Z,20.85
2018-12-18T03:02:04.661Z,20.85
2018-12-18T03:02:37.733Z,20.85
2018-12-18T03:03:10.875Z,20.85
2018-12-18T03:03:43.385Z,20.85
2018-12-18T03:04:21.506Z,20.85
2018-12-18T03:04:52.125Z,20.85
2018-12-18T03:05:25.196Z,20.85
2018-12-18T03:05:57.998Z,20.86
2018-12-18T03:06:31.327Z,20.86
2018-12-18T03:07:04.377Z,20.85
2018-12-18T03:07:37.512Z,20.85
2018-12-18T03:08:10.822Z,20.85
2018-12-18T03:08:43.913Z,20.85
2018-12-18T03:09:17.336Z,20.85
2018-12-18T03:09:50.419Z,20.85
2018-12-18T03:10:23.333Z,20.85
2018-12-18T03:10:56.279Z,20.84
2018-12-18T03:11:29.497Z,20.84
2018-12-18T03:12:02.859Z,20.84
2018-12-18T03:12:35.850Z,20.84
2018-12-18T03:13:08.753Z,20.85
2018-12-18T03:13:41.677Z,20.85
2018-12-18T03:14:14.725Z,20.84
2018-12-18T03:14:47.546Z,20.85
2018-12-18T03:15:20.719Z,20.85
2018-12-18T03:15:53.888Z,20.85
2018-12-18T03:16:26.864Z,20.85
2018-12-18T03:16:59.942Z,20.83
2018-12-18T03:17:33.150Z,20.83
2018-12-18T03:18:06.184Z,20.84
2018-12-18T03:18:39.212Z,20.84
2018-12-18T03:19:12.448Z,20.85
2018-12-18T03:19:45.566Z,20.83
2018-12-18T03:20:18.656Z,20.83
2018-12-18T03:20:51.505Z,20.82
2018-12-18T03:21:24.659Z,20.83
2018-12-18T03:21:57.680Z,20.83
2018-12-18T03:22:30.439Z,20.84
2018-12-18T03:23:03.153Z,20.83
2018-12-18T03:23:36.217Z,20.84
2018-12-18T03:24:09.289Z,20.84
2018-12-18T03:24:42.031Z,20.84
2018-12-18T03:25:15.009Z,20.83
2018-12-18T03:25:47.766Z,20.83
2018-12-18T03:26:20.664Z,20.84
2018-12-18T03:26:53.419Z,20.84
2018-12-18T03:27:26.299Z,20.84
2018-12-18T03:27:59.189Z,20.83
2018-12-18T03:28:32.338Z,20.84
2018-12-18T03:29:05.265Z,20.84
2018-12-18T03:29:38.354Z,20.84
2018-12-18T03:30:11.387Z,20.84
2018-12-18T03:30:44.437Z,20.85
2018-12-18T03:31:17.155Z,20.85
2018-12-18T03:31:50.224Z,20.85
2018-12-18T03:32:23.113Z,20.85
2018-12-18T03:32:56.152Z,20.85
2018-12-18T03:33:29.229Z,20.85
2018-12-18T03:34:02.192Z,20.84
2018-12-18T03:34:35.250Z,20.84
2018-12-18T03:35:08.277Z,20.84
2018-12-18T03:35:41.324Z,20.84
2018-12-18T03:36:14.268Z,20.85
2018-12-18T03:36:47.381Z,20.84
2018-12-18T03:37:20.830Z,20.84
2018-12-18T03:37:53.780Z,20.85
2018-12-18T03:38:26.969Z,20.86
2018-12-18T03:38:59.882Z,20.85
2018-12-18T03:39:32.889Z,20.85
2018-12-18T03:40:05.764Z,20.86
2018-12-18T03:40:38.905Z,20.86
2018-12-18T03:41:12.304Z,20.86
2018-12-18T03:41:45.163Z,20.87
2018-12-18T03:42:18.308Z,20.87
2018-12-18T03:42:51.455Z,20.86
2018-12-18T03:43:24.569Z,20.85
2018-12-18T03:43:57.974Z,20.85
2018-12-18T03:44:31.143Z,20.85
2018-12-18T03:45:04.497Z,20.84
2018-12-18T03:45:37.627Z,20.85
2018-12-18T03:46:10.741Z,20.85
2018-12-18T03:46:43.952Z,20.85
2018-12-18T03:47:17.102Z,20.86
2018-12-18T03:47:50.054Z,20.85
2018-12-18T03:48:23.263Z,20.85
2018-12-18T03:48:56.204Z,20.86
2018-12-18T03:49:29.252Z,20.85
2018-12-18T03:50:02.513Z,20.85
2018-12-18T03:50:35.376Z,20.86
2018-12-18T03:51:08.209Z,20.86
2018-12-18T03:51:41.403Z,20.86
2018-12-18T03:52:14.388Z,20.85
2018-12-18T03:52:47.597Z,20.86
2018-12-18T03:53:20.591Z,20.86
2018-12-18T03:53:53.749Z,20.86
2018-12-18T03:54:26.909Z,20.86
2018-12-18T03:55:00.095Z,20.86
2018-12-18T03:55:33.011Z,20.86
2018-12-18T03:56:06.340Z,20.86
2018-12-18T03:56:39.629Z,20.85
2018-12-18T03:57:12.458Z,20.86
2018-12-18T03:57:45.568Z,20.85
2018-12-18T03:58:18.841Z,20.85
2018-12-18T03:58:52.060Z,20.84
2018-12-18T03:59:25.044Z,20.84
2018-12-18T03:59:58.000Z,20.85
2018-12-18T04:00:31.170Z,20.86
2018-12-18T04:01:04.342Z,20.85
2018-12-18T04:01:37.606Z,20.86
2018-12-18T04:02:10.835Z,20.86
2018-12-18T04:02:43.805Z,20.86
2018-12-18T04:03:16.958Z,20.86
2018-12-18T04:03:49.838Z,20.85
2018-12-18T04:04:23.179Z,20.85
2018-12-18T04:04:56.675Z,20.85
2018-12-18T04:05:29.865Z,20.85
2018-12-18T04:06:03.001Z,20.85
2018-12-18T04:06:36.042Z,20.87
2018-12-18T04:07:09.062Z,20.86
2018-12-18T04:07:42.230Z,20.85
2018-12-18T04:08:15.170Z,20.86
2018-12-18T04:08:48.313Z,20.85
2018-12-18T04:09:21.445Z,20.86
2018-12-18T04:09:54.083Z,20.85
2018-12-18T04:10:27.104Z,20.86
2018-12-18T04:11:00.144Z,20.86
2018-12-18T04:11:33.427Z,20.86
2018-12-18T04:12:06.406Z,20.85
2018-12-18T04:12:39.464Z,20.85
2018-12-18T04:13:12.845Z,20.86
2018-12-18T04:13:45.624Z,20.86
2018-12-18T04:14:18.605Z,20.85
2018-12-18T04:14:51.734Z,20.85
2018-12-18T04:15:24.896Z,20.84
2018-12-18T04:15:58.046Z,20.86
2018-12-18T04:16:31.300Z,20.86
2018-12-18T04:17:04.290Z,20.85
2018-12-18T04:17:37.366Z,20.85
2018-12-18T04:18:10.487Z,20.86
2018-12-18T04:18:43.625Z,20.85
2018-12-18T04:19:16.478Z,20.85
2018-12-18T04:19:49.642Z,20.86
2018-12-18T04:20:22.768Z,20.87
2018-12-18T04:20:55.543Z,20.87
2018-12-18T04:21:28.658Z,20.87
2018-12-18T04:22:01.979Z,20.87
2018-12-18T04:22:35.310Z,20.87
2018-12-18T04:23:08.563Z,20.86
2018-12-18T04:23:41.613Z,20.85
2018-12-18T04:24:14.879Z,20.85
2018-12-18T04:24:47.710Z,20.86
2018-12-18T04:25:20.831Z,20.86
2018-12-18T04:25:53.813Z,20.86
2018-12-18T04:26:27.239Z,20.86
2018-12-18T04:27:00.159Z,20.86
2018-12-18T04:27:33.087Z,20.87
2018-12-18T04:28:06.229Z,20.88
2018-12-18T04:28:39.564Z,20.87
2018-12-18T04:29:12.661Z,20.87
2018-12-18T04:29:45.712Z,20.86
2018-12-18T04:30:18.588Z,20.87
2018-12-18T04:30:51.840Z,20.87
2018-12-18T04:31:24.937Z,20.87
2018-12-18T04:31:58.027Z,20.87
2018-12-18T04:32:30.994Z,20.87
2018-12-18T04:33:03.834Z,20.87
2018-12-18T04:33:37.034Z,20.87
2018-12-18T04:34:09.952Z,20.87
2018-12-18T04:34:43.325Z,20.87
2018-12-18T04:35:17.621Z,20.87
2018-12-18T04:35:51.646Z,20.87
2018-12-18T04:36:24.779Z,20.86
2018-12-18T04:36:57.875Z,20.87
2018-12-18T04:37:31.118Z,20.87
2018-12-18T04:38:04.378Z,20.88
2018-12-18T04:38:37.421Z,20.87
2018-12-18T04:39:10.456Z,20.87
2018-12-18T04:39:43.975Z,20.87
2018-12-18T04:40:17.313Z,20.88
2018-12-18T04:40:50.146Z,20.88
2018-12-18T04:41:23.445Z,20.88
2018-12-18T04:41:56.661Z,20.88
2018-12-18T04:42:29.640Z,20.88
2018-12-18T04:43:02.869Z,20.87
2018-12-18T04:43:35.687Z,20.87
2018-12-18T04:44:08.893Z,20.88
2018-12-18T04:44:42.037Z,20.88
2018-12-18T04:45:15.834Z,20.87
2018-12-18T04:45:48.904Z,20.86
2018-12-18T04:46:21.845Z,20.87
2018-12-18T04:46:54.650Z,20.87
2018-12-18T04:47:27.781Z,20.87
2018-12-18T04:48:00.698Z,20.88
2018-12-18T04:48:33.666Z,20.88
2018-12-18T04:49:06.622Z,20.88
2018-12-18T04:49:39.928Z,20.88
2018-12-18T04:50:12.926Z,20.88
2018-12-18T04:50:46.038Z,20.88
2018-12-18T04:51:19.006Z,20.89
2018-12-18T04:51:52.017Z,20.88
2018-12-18T04:52:25.196Z,20.89
2018-12-18T04:52:58.181Z,20.88
2018-12-18T04:53:31.218Z,20.90
2018-12-18T04:54:04.130Z,20.89
2018-12-18T04:54:37.385Z,20.88
2018-12-18T04:55:10.534Z,20.89
2018-12-18T04:55:43.577Z,20.90
2018-12-18T04:56:16.768Z,20.89
2018-12-18T04:56:49.927Z,20.89
2018-12-18T04:57:22.736Z,20.90
2018-12-18T04:57:55.928Z,20.88
2018-12-18T04:58:28.837Z,20.89
2018-12-18T04:59:01.849Z,20.88
2018-12-18T04:59:34.619Z,20.90
2018-12-18T05:00:07.801Z,20.89
2018-12-18T05:00:40.950Z,20.90
2018-12-18T05:01:14.108Z,20.89
2018-12-18T05:01:47.091Z,20.88
2018-12-18T05:02:20.184Z,20.83
2018-12-18T05:02:53.113Z,20.81
2018-12-18T05:03:26.202Z,20.81
2018-12-18T05:03:59.242Z,20.79
2018-12-18T05:04:32.399Z,20.80
2018-12-18T05:05:05.032Z,20.80
2018-12-18T05:05:38.010Z,20.78
2018-12-18T05:06:10.885Z,20.79
2018-12-18T05:06:43.772Z,20.79
2018-12-18T05:07:16.911Z,20.78
2018-12-18T05:07:49.596Z,20.77
2018-12-18T05:08:22.802Z,20.77
2018-12-18T05:08:55.611Z,20.77
2018-12-18T05:09:28.857Z,20.78
2018-12-18T05:10:01.884Z,20.77
2018-12-18T05:10:34.485Z,20.78
2018-12-18T05:11:07.645Z,20.78
2018-12-18T05:11:40.459Z,20.78
2018-12-18T05:12:13.586Z,20.77
2018-12-18T05:12:46.673Z,20.78
2018-12-18T05:13:19.826Z,20.78
2018-12-18T05:13:53.179Z,20.78
2018-12-18T05:14:26.097Z,20.78
2018-12-18T05:14:59.026Z,20.78
2018-12-18T05:15:31.963Z,20.80
2018-12-18T05:16:04.818Z,20.79
2018-12-18T05:16:37.809Z,20.79
2018-12-18T05:17:10.500Z,20.81
2018-12-18T05:17:43.633Z,20.80
2018-12-18T05:18:16.741Z,20.81
2018-12-18T05:18:49.775Z,20.82
2018-12-18T05:19:22.547Z,20.80
2018-12-18T05:19:55.964Z,20.81
2018-12-18T05:20:29.221Z,20.80
2018-12-18T05:21:01.942Z,20.81
2018-12-18T05:21:35.031Z,20.80
2018-12-18T05:22:08.095Z,20.81
2018-12-18T05:22:41.163Z,20.83
2018-12-18T05:23:14.370Z,20.85
2018-12-18T05:23:47.722Z,20.86
2018-12-18T05:24:20.726Z,20.86
2018-12-18T05:24:53.936Z,20.87
2018-12-18T05:25:26.970Z,20.87
2018-12-18T05:26:00.409Z,20.86
2018-12-18T05:26:33.330Z,20.86
2018-12-18T05:27:06.515Z,20.86
2018-12-18T05:27:39.539Z,20.84
2018-12-18T05:28:12.333Z,20.85
2018-12-18T05:28:45.508Z,20.84
2018-12-18T05:29:18.690Z,20.84
2018-12-18T05:29:51.677Z,20.84
2018-12-18T05:30:24.528Z,20.84
2018-12-18T05:30:57.250Z,20.84
2018-12-18T05:31:30.331Z,20.83
2018-12-18T05:32:03.409Z,20.83
2018-12-18T05:32:36.583Z,20.86
2018-12-18T05:33:09.359Z,20.88
2018-12-18T05:33:42.383Z,20.88
2018-12-18T05:34:15.497Z,20.91
2018-12-18T05:34:48.661Z,20.95
2018-12-18T05:35:21.701Z,20.98
2018-12-18T05:35:55.162Z,20.99
2018-12-18T05:36:28.215Z,20.99
2018-12-18T05:37:01.019Z,20.99
2018-12-18T05:37:33.825Z,20.99
2018-12-18T05:38:07.147Z,20.98
2018-12-18T05:38:40.212Z,20.98
2018-12-18T05:39:13.466Z,20.98
2018-12-18T05:39:46.405Z,21.00
2018-12-18T05:40:19.627Z,21.01
2018-12-18T05:40:52.624Z,21.02
2018-12-18T05:41:25.733Z,21.02
2018-12-18T05:41:58.914Z,21.03
2018-12-18T05:42:32.203Z,21.02
2018-12-18T05:43:05.124Z,21.03
2018-12-18T05:43:38.019Z,21.03
2018-12-18T05:44:10.962Z,21.03
2018-12-18T05:44:44.016Z,21.05
2018-12-18T05:45:17.062Z,21.04
2018-12-18T05:45:50.254Z,21.04
2018-12-18T05:46:23.352Z,21.03
2018-12-18T05:46:56.565Z,21.02
2018-12-18T05:47:29.528Z,21.04
2018-12-18T05:48:02.785Z,21.04
2018-12-18T05:48:35.617Z,21.04
2018-12-18T05:49:08.915Z,21.03
2018-12-18T05:49:41.675Z,21.04
2018-12-18T05:50:14.883Z,21.04
2018-12-18T05:50:47.964Z,21.03
2018-12-18T05:51:21.035Z,21.03
2018-12-18T05:51:54.183Z,21.04
2018-12-18T05:52:27.047Z,21.03
2018-12-18T05:53:00.152Z,21.03
2018-12-18T05:53:33.207Z,21.04
2018-12-18T05:54:06.396Z,21.04
2018-12-18T05:54:39.404Z,21.04
2018-12-18T05:55:12.543Z,21.04
2018-12-18T05:55:45.691Z,21.04
2018-12-18T05:56:18.723Z,21.05
2018-12-18T05:56:51.628Z,21.05
2018-12-18T05:57:24.637Z,21.05
2018-12-18T05:57:57.860Z,21.05
2018-12-18T05:58:30.639Z,21.05
2018-12-18T05:59:03.739Z,21.06
2018-12-18T05:59:36.825Z,21.06
2018-12-18T06:00:09.920Z,21.05
2018-12-18T06:00:43.028Z,21.05
2018-12-18T06:01:16.224Z,21.05
2018-12-18T06:01:48.710Z,21.05
2018-12-18T06:02:21.885Z,21.05
2018-12-18T06:02:54.835Z,21.06
2018-12-18T06:03:27.657Z,21.04
2018-12-18T06:04:00.580Z,21.06
2018-12-18T06:04:33.561Z,21.05
2018-12-18T06:05:06.920Z,21.06
2018-12-18T06:05:39.972Z,21.07
2018-12-18T06:06:13.318Z,21.07
2018-12-18T06:06:46.350Z,21.08
2018-12-18T06:07:19.450Z,20.01
2018-12-18T06:07:52.541Z,18.55
2018-12-18T06:08:25.570Z,17.55
2018-12-18T06:08:58.571Z,16.69
2018-12-18T06:09:31.578Z,15.95
2018-12-18T06:10:04.717Z,15.50
2018-12-18T06:10:37.971Z,15.84
2018-12-18T06:11:10.808Z,16.45
2018-12-18T06:11:44.282Z,17.06
2018-12-18T06:12:17.286Z,17.68
2018-12-18T06:12:50.367Z,18.18
2018-12-18T06:13:23.488Z,18.59
2018-12-18T06:13:56.287Z,18.89
2018-12-18T06:14:29.201Z,19.18
2018-12-18T06:15:02.107Z,19.37
2018-12-18T06:15:35.248Z,19.55
2018-12-18T06:16:08.207Z,19.68
2018-12-18T06:16:41.558Z,19.80
2018-12-18T06:17:14.807Z,19.90
2018-12-18T06:17:47.928Z,19.97
2018-12-18T06:18:21.083Z,20.03
2018-12-18T06:18:54.049Z,20.08
2018-12-18T06:19:27.101Z,20.15
2018-12-18T06:20:00.172Z,20.18
2018-12-18T06:20:33.604Z,20.22
2018-12-18T06:21:06.818Z,20.27
2018-12-18T06:21:39.856Z,20.30
2018-12-18T06:22:12.743Z,20.33
2018-12-18T06:22:45.674Z,20.35
2018-12-18T06:23:18.869Z,20.38
2018-12-18T06:23:51.947Z,20.38
2018-12-18T06:24:24.937Z,20.41
2018-12-18T06:24:57.736Z,20.43
2018-12-18T06:25:30.968Z,20.46
2018-12-18T06:26:04.008Z,20.48
2018-12-18T06:26:37.010Z,20.50
2018-12-18T06:27:10.164Z,20.52
2018-12-18T06:27:43.019Z,20.54
2018-12-18T06:28:16.326Z,20.56
2018-12-18T06:28:49.575Z,20.57
2018-12-18T06:29:22.672Z,20.60
2018-12-18T06:29:55.823Z,20.60
2018-12-18T06:30:29.099Z,20.63
2018-12-18T06:31:02.112Z,20.64
2018-12-18T06:31:35.412Z,20.64
2018-12-18T06:32:08.557Z,20.66
2018-12-18T06:32:41.707Z,20.67
2018-12-18T06:33:14.564Z,20.67
2018-12-18T06:33:48.682Z,20.67
2018-12-18T06:34:21.603Z,20.67
2018-12-18T06:34:54.853Z,20.69
2018-12-18T06:35:28.088Z,20.69
2018-12-18T06:36:00.981Z,20.68
2018-12-18T06:36:34.541Z,20.69
2018-12-18T06:37:07.713Z,20.69
2018-12-18T06:37:40.837Z,20.69
2018-12-18T06:38:13.745Z,20.68
2018-12-18T06:38:46.794Z,20.70
2018-12-18T06:39:19.977Z,20.69
2018-12-18T06:39:53.348Z,20.70
2018-12-18T06:40:26.510Z,20.69
2018-12-18T06:40:59.426Z,20.70
2018-12-18T06:41:32.468Z,20.70
2018-12-18T06:42:05.392Z,20.70
2018-12-18T06:42:38.251Z,20.69
2018-12-18T06:43:11.337Z,20.70
2018-12-18T06:43:44.170Z,20.70
2018-12-18T06:44:17.422Z,20.70
2018-12-18T06:44:50.446Z,20.69
2018-12-18T06:45:23.721Z,20.69
2018-12-18T06:45:56.690Z,20.70
2018-12-18T06:46:30.081Z,20.70
2018-12-18T06:47:03.000Z,20.70
2018-12-18T06:47:35.643Z,20.71
2018-12-18T06:48:08.676Z,20.71
2018-12-18T06:48:41.441Z,20.71
2018-12-18T06:49:14.514Z,20.71
2018-12-18T06:49:47.453Z,20.70
2018-12-18T06:50:20.490Z,20.70
2018-12-18T06:50:53.795Z,20.70
2018-12-18T06:51:26.862Z,20.70
2018-12-18T06:51:59.709Z,20.70
2018-12-18T06:52:32.856Z,20.71
2018-12-18T06:53:05.676Z,20.70
2018-12-18T06:53:38.215Z,20.72
2018-12-18T06:54:11.325Z,20.71
2018-12-18T06:54:44.281Z,20.71
2018-12-18T06:55:17.111Z,20.71
2018-12-18T06:55:50.069Z,20.71
2018-12-18T06:56:23.154Z,20.71
2018-12-18T06:56:56.351Z,20.71
2018-12-18T06:57:29.280Z,20.71
2018-12-18T06:58:02.173Z,20.71
2018-12-18T06:58:35.363Z,20.71
2018-12-18T06:59:08.493Z,20.70
2018-12-18T06:59:41.577Z,20.72
2018-12-18T07:00:14.373Z,20.73
2018-12-18T07:00:47.425Z,20.73
2018-12-18T07:01:20.304Z,20.72
2018-12-18T07:01:53.419Z,20.73
2018-12-18T07:02:26.274Z,20.73
2018-12-18T07:02:58.975Z,20.72
2018-12-18T07:03:32.144Z,20.73
2018-12-18T07:04:05.308Z,20.72
2018-12-18T07:04:38.136Z,20.73
2018-12-18T07:05:16.544Z,20.72
2018-12-18T07:05:46.318Z,20.72
2018-12-18T07:06:19.266Z,20.72